ENT4031 EPKT-DTNH
Flight info
| Callsign | ENT4031 |
|---|---|
| Flight time | N/A |
| Altitude | 38000 |
| Route | BABKO DCT KOPRY DCT XAMIT/N0449F390 DCT EKMIL DCT ENSOT DCT PININ DCT TUNEX UM738 DIDON G727 ATLEL ATLEL1E |
| Aircraft | B738/M-SDFGHIJ1RWXY/EB1 |
Departure
| Time | 2026-05-01 14:06 |
|---|---|
| Airport | Katowice Wojciech Korfanty International Airport (EPKT) |
Arrival
| Time | N/A |
|---|---|
| Airport | Enfidha - Hammamet International Airport (DTNH) |
| Time | Latitude | Longitude | Altitude | Speed | Heading |
|---|---|---|---|---|---|
| 2026-05-01 13:35 | 50.47180 | 19.07342 | 984 ft | 0 kts | 180° |
| 2026-05-01 13:57 | 50.47183 | 19.07342 | 963 ft | 2 kts | 179° |
| 2026-05-01 13:57 | 50.47201 | 19.07341 | 965 ft | 3 kts | 167° |
| 2026-05-01 13:58 | 50.47219 | 19.07330 | 964 ft | 3 kts | 144° |
| 2026-05-01 13:58 | 50.47232 | 19.07310 | 967 ft | 3 kts | 111° |
| 2026-05-01 13:58 | 50.47235 | 19.07291 | 969 ft | 1 kts | 90° |
| 2026-05-01 13:58 | 50.47235 | 19.07290 | 969 ft | 1 kts | 90° |
| 2026-05-01 14:00 | 50.47235 | 19.07331 | 971 ft | 10 kts | 90° |
| 2026-05-01 14:01 | 50.47235 | 19.07489 | 969 ft | 16 kts | 90° |
| 2026-05-01 14:01 | 50.47234 | 19.07661 | 973 ft | 16 kts | 90° |
| 2026-05-01 14:01 | 50.47234 | 19.07841 | 975 ft | 16 kts | 90° |
| 2026-05-01 14:01 | 50.47234 | 19.08016 | 972 ft | 17 kts | 90° |
| 2026-05-01 14:02 | 50.47233 | 19.08235 | 975 ft | 22 kts | 90° |
| 2026-05-01 14:02 | 50.47233 | 19.08474 | 974 ft | 22 kts | 90° |
| 2026-05-01 14:02 | 50.47232 | 19.08706 | 974 ft | 21 kts | 90° |
| 2026-05-01 14:02 | 50.47231 | 19.08935 | 975 ft | 21 kts | 90° |
| 2026-05-01 14:03 | 50.47231 | 19.09178 | 980 ft | 22 kts | 90° |
| 2026-05-01 14:03 | 50.47231 | 19.09421 | 982 ft | 22 kts | 90° |
| 2026-05-01 14:03 | 50.47230 | 19.09658 | 984 ft | 22 kts | 90° |
| 2026-05-01 14:03 | 50.47229 | 19.09903 | 985 ft | 22 kts | 90° |
| 2026-05-01 14:04 | 50.47284 | 19.10117 | 987 ft | 22 kts | 51° |
| 2026-05-01 14:04 | 50.47376 | 19.10299 | 988 ft | 21 kts | 52° |
| 2026-05-01 14:04 | 50.47481 | 19.10444 | 989 ft | 20 kts | 9° |
| 2026-05-01 14:04 | 50.47569 | 19.10441 | 989 ft | 18 kts | 342° |
| 2026-05-01 14:05 | 50.47596 | 19.10247 | 988 ft | 18 kts | 270° |
| 2026-05-01 14:05 | 50.47598 | 19.09646 | 984 ft | 93 kts | 270° |
| 2026-05-01 14:05 | 50.47601 | 19.08277 | 975 ft | 156 kts | 271° |
| 2026-05-01 14:05 | 50.47595 | 19.06457 | 1491 ft | 173 kts | 274° |
| 2026-05-01 14:06 | 50.47589 | 19.04559 | 2495 ft | 172 kts | 274° |
| 2026-05-01 14:06 | 50.47604 | 19.02598 | 3233 ft | 191 kts | 275° |
| 2026-05-01 14:06 | 50.47642 | 19.00386 | 3810 ft | 210 kts | 275° |
| 2026-05-01 14:06 | 50.47519 | 18.98068 | 4344 ft | 229 kts | 253° |
| 2026-05-01 14:07 | 50.46560 | 18.95925 | 4765 ft | 251 kts | 221° |
| 2026-05-01 14:07 | 50.44955 | 18.94761 | 5427 ft | 263 kts | 188° |
| 2026-05-01 14:07 | 50.43121 | 18.95053 | 6004 ft | 277 kts | 160° |
| 2026-05-01 14:08 | 50.39475 | 18.97371 | 7658 ft | 289 kts | 153° |
| 2026-05-01 14:08 | 50.37618 | 18.98630 | 8538 ft | 293 kts | 153° |
| 2026-05-01 14:08 | 50.35702 | 18.99918 | 9417 ft | 299 kts | 153° |
| 2026-05-01 14:08 | 50.33769 | 19.01200 | 10277 ft | 304 kts | 153° |
| 2026-05-01 14:09 | 50.31810 | 19.02486 | 10828 ft | 319 kts | 153° |
| 2026-05-01 14:09 | 50.30388 | 19.03417 | 10965 ft | 337 kts | 153° |
| 2026-05-01 14:09 | 50.27433 | 19.05332 | 11661 ft | 354 kts | 153° |
| 2026-05-01 14:09 | 50.25137 | 19.06801 | 12502 ft | 357 kts | 153° |
| 2026-05-01 14:10 | 50.22825 | 19.08271 | 13341 ft | 361 kts | 153° |
| 2026-05-01 14:10 | 50.21275 | 19.09256 | 13862 ft | 364 kts | 152° |
| 2026-05-01 14:10 | 50.18905 | 19.10762 | 14576 ft | 369 kts | 152° |
| 2026-05-01 14:10 | 50.16515 | 19.12277 | 15314 ft | 372 kts | 152° |
| 2026-05-01 14:11 | 50.14106 | 19.13803 | 16052 ft | 375 kts | 152° |
| 2026-05-01 14:11 | 50.09215 | 19.16898 | 17460 ft | 383 kts | 152° |
| 2026-05-01 14:11 | 50.06728 | 19.18469 | 18170 ft | 387 kts | 152° |
| 2026-05-01 14:12 | 50.04219 | 19.20052 | 18824 ft | 391 kts | 152° |
| 2026-05-01 14:12 | 50.01688 | 19.21648 | 19436 ft | 394 kts | 152° |
| 2026-05-01 14:12 | 49.99135 | 19.23255 | 20054 ft | 397 kts | 151° |
| 2026-05-01 14:12 | 49.96559 | 19.24874 | 20668 ft | 400 kts | 151° |
| 2026-05-01 14:13 | 49.93970 | 19.26500 | 21271 ft | 403 kts | 151° |
| 2026-05-01 14:13 | 49.91354 | 19.28142 | 21870 ft | 407 kts | 151° |
| 2026-05-01 14:13 | 49.88719 | 19.29794 | 22437 ft | 410 kts | 151° |
| 2026-05-01 14:13 | 49.86058 | 19.31460 | 23011 ft | 414 kts | 151° |
| 2026-05-01 14:14 | 49.83374 | 19.33138 | 23579 ft | 417 kts | 151° |
| 2026-05-01 14:14 | 49.80668 | 19.34829 | 24092 ft | 421 kts | 151° |
| 2026-05-01 14:14 | 49.77942 | 19.36529 | 24573 ft | 424 kts | 151° |
| 2026-05-01 14:14 | 49.75200 | 19.38236 | 25041 ft | 426 kts | 151° |
| 2026-05-01 14:15 | 49.72437 | 19.39954 | 25498 ft | 429 kts | 151° |
| 2026-05-01 14:15 | 49.69659 | 19.41681 | 25919 ft | 432 kts | 151° |
| 2026-05-01 14:15 | 49.66859 | 19.43420 | 26345 ft | 435 kts | 151° |
| 2026-05-01 14:15 | 49.64034 | 19.45035 | 26772 ft | 445 kts | 159° |
| 2026-05-01 14:16 | 49.60915 | 19.45533 | 27180 ft | 462 kts | 179° |
| 2026-05-01 14:16 | 49.57727 | 19.44481 | 27568 ft | 475 kts | 199° |
| 2026-05-01 14:16 | 49.54740 | 19.42221 | 28006 ft | 479 kts | 206° |
| 2026-05-01 14:16 | 49.51789 | 19.39789 | 28353 ft | 483 kts | 206° |
| 2026-05-01 14:17 | 49.48821 | 19.37311 | 28694 ft | 487 kts | 206° |
| 2026-05-01 14:17 | 49.45831 | 19.34830 | 29061 ft | 490 kts | 206° |
| 2026-05-01 14:17 | 49.42821 | 19.32368 | 29448 ft | 492 kts | 206° |
| 2026-05-01 14:17 | 49.39780 | 19.29916 | 29812 ft | 494 kts | 205° |
| 2026-05-01 14:18 | 49.36713 | 19.27469 | 30152 ft | 497 kts | 205° |
| 2026-05-01 14:18 | 49.33671 | 19.25059 | 30485 ft | 499 kts | 205° |
| 2026-05-01 14:18 | 49.30572 | 19.22614 | 30775 ft | 501 kts | 205° |
| 2026-05-01 14:18 | 49.28476 | 19.20963 | 30951 ft | 503 kts | 205° |
| 2026-05-01 14:19 | 49.24339 | 19.17710 | 31290 ft | 506 kts | 205° |
| 2026-05-01 14:19 | 49.21201 | 19.15245 | 31564 ft | 508 kts | 205° |
| 2026-05-01 14:19 | 49.18048 | 19.12771 | 31847 ft | 510 kts | 205° |
| 2026-05-01 14:19 | 49.14881 | 19.10286 | 32206 ft | 509 kts | 205° |
| 2026-05-01 14:20 | 49.11727 | 19.07815 | 32572 ft | 509 kts | 206° |
| 2026-05-01 14:20 | 49.05423 | 19.02888 | 33217 ft | 509 kts | 206° |
| 2026-05-01 14:20 | 49.02267 | 19.00426 | 33551 ft | 509 kts | 206° |
| 2026-05-01 14:21 | 48.99114 | 18.97970 | 33875 ft | 509 kts | 206° |
| 2026-05-01 14:21 | 48.95958 | 18.95516 | 34202 ft | 509 kts | 206° |
| 2026-05-01 14:21 | 48.92850 | 18.93103 | 34494 ft | 508 kts | 206° |
| 2026-05-01 14:22 | 48.86533 | 18.88207 | 35139 ft | 505 kts | 206° |
| 2026-05-01 14:22 | 48.83447 | 18.85821 | 35455 ft | 503 kts | 206° |
| 2026-05-01 14:22 | 48.80334 | 18.83418 | 35751 ft | 502 kts | 206° |
| 2026-05-01 14:22 | 48.77223 | 18.81019 | 36048 ft | 500 kts | 206° |
| 2026-05-01 14:23 | 48.74120 | 18.78630 | 36346 ft | 499 kts | 206° |
| 2026-05-01 14:23 | 48.71021 | 18.76246 | 36623 ft | 498 kts | 206° |
| 2026-05-01 14:23 | 48.67939 | 18.73880 | 36873 ft | 497 kts | 206° |
| 2026-05-01 14:23 | 48.64856 | 18.71517 | 37151 ft | 496 kts | 206° |
| 2026-05-01 14:24 | 48.61775 | 18.69157 | 37442 ft | 495 kts | 206° |
| 2026-05-01 14:24 | 48.58714 | 18.66817 | 37826 ft | 491 kts | 206° |
| 2026-05-01 14:24 | 48.55676 | 18.64496 | 38135 ft | 489 kts | 206° |
| 2026-05-01 14:24 | 48.52626 | 18.62171 | 38319 ft | 490 kts | 206° |
| 2026-05-01 14:25 | 48.46531 | 18.57534 | 38327 ft | 495 kts | 206° |
| 2026-05-01 14:25 | 48.40396 | 18.52877 | 38322 ft | 492 kts | 206° |
| 2026-05-01 14:26 | 48.31260 | 18.45965 | 38313 ft | 488 kts | 206° |
| 2026-05-01 14:27 | 48.25193 | 18.41392 | 38317 ft | 486 kts | 206° |
| 2026-05-01 14:27 | 48.19140 | 18.36841 | 38326 ft | 486 kts | 206° |
| 2026-05-01 14:28 | 48.10055 | 18.30033 | 38330 ft | 488 kts | 206° |
| 2026-05-01 14:28 | 48.03971 | 18.25489 | 38343 ft | 490 kts | 206° |
| 2026-05-01 14:29 | 47.97853 | 18.20932 | 38337 ft | 492 kts | 206° |
| 2026-05-01 14:30 | 47.85569 | 18.11818 | 38337 ft | 496 kts | 206° |
| 2026-05-01 14:31 | 47.76272 | 18.04952 | 38339 ft | 498 kts | 206° |
| 2026-05-01 14:31 | 47.70064 | 18.00382 | 38345 ft | 498 kts | 206° |
| 2026-05-01 14:32 | 47.63852 | 17.95823 | 38345 ft | 498 kts | 205° |
| 2026-05-01 14:32 | 47.57687 | 17.91309 | 38341 ft | 497 kts | 205° |
| 2026-05-01 14:33 | 47.51491 | 17.86785 | 38340 ft | 495 kts | 205° |
| 2026-05-01 14:33 | 47.45315 | 17.82288 | 38352 ft | 494 kts | 205° |
| 2026-05-01 14:34 | 47.39155 | 17.77814 | 38343 ft | 493 kts | 205° |
| 2026-05-01 14:34 | 47.32999 | 17.73354 | 38338 ft | 492 kts | 205° |
| 2026-05-01 14:35 | 47.26859 | 17.68918 | 38339 ft | 491 kts | 205° |
| 2026-05-01 14:35 | 47.20720 | 17.64494 | 38339 ft | 491 kts | 205° |
| 2026-05-01 14:36 | 47.14621 | 17.60110 | 38337 ft | 490 kts | 205° |
| 2026-05-01 14:36 | 47.08491 | 17.55714 | 38339 ft | 490 kts | 205° |
| 2026-05-01 14:37 | 47.02351 | 17.51324 | 38347 ft | 491 kts | 205° |
| 2026-05-01 14:37 | 46.96214 | 17.46946 | 38334 ft | 491 kts | 205° |
| 2026-05-01 14:38 | 46.90042 | 17.42555 | 38324 ft | 492 kts | 205° |
| 2026-05-01 14:38 | 46.83883 | 17.38185 | 38336 ft | 493 kts | 205° |
| 2026-05-01 14:39 | 46.77734 | 17.33833 | 38320 ft | 494 kts | 205° |
| 2026-05-01 14:39 | 46.71541 | 17.29461 | 38315 ft | 495 kts | 205° |
| 2026-05-01 14:40 | 46.65334 | 17.25089 | 38323 ft | 495 kts | 205° |
| 2026-05-01 14:40 | 46.59124 | 17.20727 | 38325 ft | 496 kts | 205° |
| 2026-05-01 14:41 | 46.52891 | 17.16360 | 38322 ft | 496 kts | 205° |
| 2026-05-01 14:41 | 46.46668 | 17.12011 | 38333 ft | 496 kts | 205° |
| 2026-05-01 14:42 | 46.40436 | 17.07667 | 38330 ft | 497 kts | 205° |
| 2026-05-01 14:42 | 46.34256 | 17.03369 | 38338 ft | 496 kts | 205° |
| 2026-05-01 14:43 | 46.28031 | 16.99050 | 38338 ft | 496 kts | 205° |
| 2026-05-01 14:43 | 46.21812 | 16.94696 | 38330 ft | 495 kts | 206° |
| 2026-05-01 14:44 | 46.15747 | 16.89991 | 38332 ft | 494 kts | 208° |
| 2026-05-01 14:44 | 46.06717 | 16.82797 | 38329 ft | 494 kts | 208° |
| 2026-05-01 14:45 | 45.97694 | 16.75754 | 38341 ft | 493 kts | 208° |
| 2026-05-01 14:46 | 45.91649 | 16.71079 | 38327 ft | 493 kts | 208° |
| 2026-05-01 14:46 | 45.82586 | 16.64089 | 38335 ft | 493 kts | 207° |
| 2026-05-01 14:47 | 45.76528 | 16.59429 | 38332 ft | 494 kts | 207° |
| 2026-05-01 14:48 | 45.67437 | 16.52457 | 38335 ft | 495 kts | 207° |
| 2026-05-01 14:48 | 45.58367 | 16.45526 | 38329 ft | 495 kts | 207° |
| 2026-05-01 14:49 | 45.46184 | 16.36257 | 38341 ft | 496 kts | 207° |
| 2026-05-01 14:50 | 45.33995 | 16.27029 | 38325 ft | 496 kts | 207° |
| 2026-05-01 14:51 | 45.24869 | 16.20149 | 38322 ft | 496 kts | 207° |
| 2026-05-01 14:52 | 45.15711 | 16.13271 | 38309 ft | 496 kts | 207° |
| 2026-05-01 14:53 | 45.06549 | 16.06415 | 38325 ft | 496 kts | 207° |
| 2026-05-01 14:53 | 45.00445 | 16.01861 | 38314 ft | 496 kts | 207° |
| 2026-05-01 14:54 | 44.94348 | 15.97323 | 38311 ft | 495 kts | 207° |
| 2026-05-01 14:54 | 44.88244 | 15.92791 | 38318 ft | 495 kts | 207° |
| 2026-05-01 14:55 | 44.82191 | 15.88308 | 38308 ft | 495 kts | 207° |
| 2026-05-01 14:55 | 44.76087 | 15.83797 | 38311 ft | 494 kts | 207° |
| 2026-05-01 14:56 | 44.69991 | 15.79305 | 38299 ft | 495 kts | 207° |
| 2026-05-01 14:56 | 44.64876 | 15.75542 | 38304 ft | 495 kts | 207° |
| 2026-05-01 14:57 | 44.58770 | 15.71061 | 38286 ft | 495 kts | 207° |
| 2026-05-01 14:57 | 44.49653 | 15.64390 | 38289 ft | 495 kts | 207° |
| 2026-05-01 14:58 | 44.43532 | 15.59926 | 38276 ft | 495 kts | 207° |
| 2026-05-01 14:58 | 44.37424 | 15.55480 | 38278 ft | 495 kts | 207° |
| 2026-05-01 14:59 | 44.31294 | 15.51029 | 38266 ft | 496 kts | 207° |
| 2026-05-01 14:59 | 44.25174 | 15.46596 | 38269 ft | 495 kts | 207° |
| 2026-05-01 15:00 | 44.16051 | 15.40008 | 38270 ft | 493 kts | 207° |
| 2026-05-01 15:01 | 44.09935 | 15.35603 | 38261 ft | 491 kts | 207° |
| 2026-05-01 15:01 | 44.03876 | 15.31250 | 38265 ft | 489 kts | 207° |
| 2026-05-01 15:02 | 43.97854 | 15.26933 | 38255 ft | 486 kts | 207° |
| 2026-05-01 15:02 | 43.91852 | 15.22640 | 38263 ft | 484 kts | 207° |
| 2026-05-01 15:03 | 43.85920 | 15.18408 | 38264 ft | 481 kts | 207° |
| 2026-05-01 15:03 | 43.79973 | 15.14174 | 38251 ft | 479 kts | 207° |
| 2026-05-01 15:04 | 43.74052 | 15.09968 | 38255 ft | 477 kts | 207° |
| 2026-05-01 15:04 | 43.68146 | 15.05782 | 38249 ft | 476 kts | 207° |
| 2026-05-01 15:05 | 43.62248 | 15.01611 | 38267 ft | 476 kts | 207° |
| 2026-05-01 15:05 | 43.56341 | 14.97444 | 38265 ft | 477 kts | 207° |
| 2026-05-01 15:06 | 43.50454 | 14.93298 | 38255 ft | 479 kts | 207° |
| 2026-05-01 15:06 | 43.44493 | 14.89110 | 38263 ft | 481 kts | 208° |
| 2026-05-01 15:07 | 43.38512 | 14.84917 | 38266 ft | 484 kts | 208° |
| 2026-05-01 15:07 | 43.32463 | 14.80685 | 38271 ft | 486 kts | 208° |
| 2026-05-01 15:08 | 43.26372 | 14.76783 | 38266 ft | 486 kts | 204° |
| 2026-05-01 15:08 | 43.20192 | 14.73199 | 38406 ft | 482 kts | 204° |
| 2026-05-01 15:08 | 43.17087 | 14.71411 | 38514 ft | 484 kts | 204° |
| 2026-05-01 15:09 | 43.13993 | 14.69619 | 38698 ft | 484 kts | 205° |
| 2026-05-01 15:09 | 43.10893 | 14.67812 | 38957 ft | 482 kts | 205° |
| 2026-05-01 15:09 | 43.07807 | 14.66005 | 39134 ft | 481 kts | 205° |
| 2026-05-01 15:09 | 43.04730 | 14.64200 | 39250 ft | 481 kts | 205° |
| 2026-05-01 15:10 | 43.01646 | 14.62388 | 39265 ft | 484 kts | 205° |
| 2026-05-01 15:10 | 42.92327 | 14.56927 | 39281 ft | 486 kts | 205° |
| 2026-05-01 15:11 | 42.83033 | 14.51503 | 39283 ft | 486 kts | 205° |
| 2026-05-01 15:12 | 42.76817 | 14.47887 | 39278 ft | 485 kts | 205° |
| 2026-05-01 15:12 | 42.67520 | 14.42492 | 39281 ft | 483 kts | 205° |
| 2026-05-01 15:14 | 42.52205 | 14.33642 | 39287 ft | 477 kts | 205° |
| 2026-05-01 15:14 | 42.43059 | 14.28379 | 39287 ft | 473 kts | 205° |
| 2026-05-01 15:15 | 42.30948 | 14.21436 | 39285 ft | 471 kts | 205° |
| 2026-05-01 15:16 | 42.18895 | 14.14552 | 39291 ft | 472 kts | 205° |
| 2026-05-01 15:18 | 42.04263 | 14.04416 | 39286 ft | 476 kts | 211° |
| 2026-05-01 15:19 | 41.92549 | 13.95935 | 39263 ft | 480 kts | 211° |
| 2026-05-01 15:19 | 41.83705 | 13.89624 | 39243 ft | 479 kts | 211° |
| 2026-05-01 15:20 | 41.74945 | 13.83392 | 39224 ft | 475 kts | 211° |
| 2026-05-01 15:21 | 41.69124 | 13.79259 | 39208 ft | 471 kts | 211° |
| 2026-05-01 15:21 | 41.63353 | 13.75171 | 39203 ft | 467 kts | 211° |
| 2026-05-01 15:22 | 41.54769 | 13.69102 | 39194 ft | 464 kts | 212° |
| 2026-05-01 15:22 | 41.49070 | 13.65084 | 39193 ft | 461 kts | 212° |
| 2026-05-01 15:23 | 41.43416 | 13.61104 | 39191 ft | 464 kts | 212° |
| 2026-05-01 15:23 | 41.37681 | 13.57072 | 39200 ft | 470 kts | 212° |
| 2026-05-01 15:24 | 41.31844 | 13.52979 | 39187 ft | 477 kts | 212° |
| 2026-05-01 15:24 | 41.25936 | 13.48848 | 39191 ft | 481 kts | 212° |
| 2026-05-01 15:25 | 41.19981 | 13.44693 | 39188 ft | 484 kts | 212° |
| 2026-05-01 15:25 | 41.14052 | 13.40568 | 39181 ft | 478 kts | 212° |
| 2026-05-01 15:26 | 41.08196 | 13.36500 | 39181 ft | 474 kts | 212° |
| 2026-05-01 15:26 | 41.02356 | 13.32448 | 39191 ft | 473 kts | 212° |
| 2026-05-01 15:27 | 40.96525 | 13.28409 | 39194 ft | 472 kts | 212° |
| 2026-05-01 15:28 | 40.87789 | 13.22375 | 39196 ft | 472 kts | 212° |
| 2026-05-01 15:28 | 40.81954 | 13.18355 | 39196 ft | 473 kts | 212° |
| 2026-05-01 15:29 | 40.73232 | 13.12362 | 39200 ft | 473 kts | 211° |
| 2026-05-01 15:30 | 40.61563 | 13.04370 | 39203 ft | 471 kts | 211° |
| 2026-05-01 15:31 | 40.44123 | 12.92829 | 39195 ft | 464 kts | 210° |
| 2026-05-01 15:32 | 40.32567 | 12.85559 | 39195 ft | 457 kts | 210° |
| 2026-05-01 15:34 | 40.15548 | 12.74808 | 39199 ft | 450 kts | 211° |